หน้าหลัก
METAR-TAF:

METAR-TAF

ท่าอากาศยาน :

Lichinga, โมซัมบิก

ละติจูด: 13-18S, ลองจิจูด: 035-14E, ความสูง: 1364 ม.

การสังเกตสภาพอากาศปัจจุบัน

รายงานได้ทำขึ้นเมื่อ 1 ชั่วโมงและ 17 นาทีที่แล้ว ณ เวลา 06:00 UTC
ลม 10 นอตจากตะวันออกเฉียงใต้
อุณหภูมิ 18°C
ความชื้น 100%
ความกดอากาศ 1025 hPa
ทัศนวิสัย 10 กม. หรือมากกว่า
มีเมฆกระจายเป็นบางส่วนที่ความสูง 900 ฟุต
มีเมฆเป็นส่วนมากเว้นเป็นระยะที่ความสูง 1200 ฟุต

METAR: FQLC 200600Z 13010KT 9999 SCT009 BKN012 18/18 Q1025

เวลา: 09:17 (07:17 UTC)

การพยากรณ์

รายงานได้ทำขึ้นเมื่อ 3 ชั่วโมงและ 17 นาทีที่แล้ว ณ เวลา 04:00 UTC
การพยากรณ์มีผลตั้งแต่วันที่ 20 ณ เวลา 06 UTC จนถึงวันที่ 21 ณ เวลา 06 UTC
ลม 6 นอตจากตะวันออก
ทัศนวิสัย 10 กม. หรือมากกว่า
มีเมฆเป็นส่วนมากเว้นเป็นระยะที่ความสูง 2000 ฟุต
กำลังกลายเป็น
ตั้งแต่วันที่ 20 ณ เวลา 11 UTC จนถึงวันที่ 20 ณ เวลา 13 UTC
ลม 8 นอตจากใต้/ตะวันออกเฉียงใต้

TAF: FQLC 200400Z 2006/2106 10006KT 9999 BKN020 TX25/2013Z TN16/2102Z BECMG 2011/2013 16008KT

สังเกตการณ์สภาพอากาศและพยากรณ์อากาศของสนามบินมากกว่า 4000 แห่ง (รายงาน METAR และ TAF).

สถานีที่ดูได้จะแสดงไว้ด้วยจุดสีเหลืองและสีแดงบนแผนที่.

เลื่อนเมาส์ไปเหนือจุดเพื่อดูชื่อสถานี.

แล้วคลิกเพื่อดูสังเกตการณ์และการพยากรณ์สภาพอากาศ.

ในการเปลี่ยนแผนที่: คลิกที่ปุ่มสีเขียวที่มีกากบาทสีดำเพื่อซูมเข้า; ที่ปุ่มสีเขียวที่มีขีดเพื่อซูมออก; หรือที่ลูกศรสีเขียวเพื่อไปยังแผนที่ที่อยู่ติดกัน.


METAR-TAF: